Time;durP1;ratioP1;P1;durP2;ratioP2;P2;SDS_P1;SDS_P2;PMS_P1;PMS_P2;Temp;Humidity;BMP_temperature;BMP_pressure;BME280_temperature;BME280_humidity;BME280_pressure;Samples;Min_cycle;Max_cycle;Signal;HPM_P1;HPM_P2
2023/01/04 00:00:44;;;;;;;50.05;26.33;;;5.00;99.90;;;;;;5074254;28;20020;-50
2023/01/04 00:03:10;;;;;;;110.32;25.40;;;4.80;99.90;;;;;;5074244;28;20013;-52
2023/01/04 00:05:35;;;;;;;54.55;22.50;;;4.80;99.90;;;;;;5067745;28;20032;-50
2023/01/04 00:08:01;;;;;;;122.55;22.48;;;4.70;99.90;;;;;;5054137;28;20079;-51
2023/01/04 00:10:26;;;;;;;290.35;23.73;;;4.60;99.90;;;;;;5053851;28;20041;-49
2023/01/04 00:12:52;;;;;;;577.03;33.90;;;4.50;99.90;;;;;;5053924;28;20477;-50
2023/01/04 00:15:18;;;;;;;641.70;34.17;;;4.40;99.90;;;;;;5053948;28;20032;-51
2023/01/04 00:17:43;;;;;;;415.33;27.45;;;4.30;99.90;;;;;;5053789;28;20037;-49
2023/01/04 00:20:09;;;;;;;548.97;31.27;;;4.20;99.90;;;;;;5058041;28;20043;-52
2023/01/04 00:22:35;;;;;;;171.82;23.13;;;4.20;99.90;;;;;;5072467;28;20044;-50
2023/01/04 00:25:01;;;;;;;382.75;26.73;;;4.20;99.90;;;;;;5072962;28;20441;-52
2023/01/04 00:27:26;;;;;;;449.15;30.77;;;4.20;99.90;;;;;;5073466;28;20032;-51
2023/01/04 00:29:52;;;;;;;149.15;20.80;;;4.20;99.90;;;;;;5073588;28;20028;-50
2023/01/04 00:32:18;;;;;;;178.27;21.52;;;4.10;99.90;;;;;;5073636;28;20103;-52
2023/01/04 00:34:43;;;;;;;170.73;20.17;;;4.20;99.90;;;;;;5070300;28;20120;-53
2023/01/04 00:37:09;;;;;;;79.72;18.08;;;4.20;99.90;;;;;;5053466;28;20074;-53
2023/01/04 00:39:34;;;;;;;156.43;21.20;;;4.10;99.90;;;;;;5053428;28;20494;-50
2023/01/04 00:42:06;;;;;;;107.43;19.45;;;4.20;99.90;;;;;;5053279;28;20495;-50
2023/01/04 00:44:33;;;;;;;125.20;18.92;;;4.30;99.90;;;;;;5053399;28;20033;-51
2023/01/04 00:47:00;;;;;;;187.32;22.40;;;4.30;99.90;;;;;;5052111;28;20067;-53
2023/01/04 00:49:27;;;;;;;208.07;22.60;;;4.20;99.90;;;;;;5055717;28;20033;-50
2023/01/04 00:51:53;;;;;;;198.52;21.42;;;4.20;99.90;;;;;;5073316;28;20364;-52
2023/01/04 00:54:19;;;;;;;98.43;19.20;;;4.20;99.90;;;;;;5073171;28;20028;-52
2023/01/04 00:56:46;;;;;;;77.13;16.02;;;4.30;99.90;;;;;;5072997;28;20020;-49
2023/01/04 00:59:13;;;;;;;18.23;13.02;;;4.40;99.90;;;;;;5073140;28;20024;-49
2023/01/04 01:01:40;;;;;;;27.10;13.27;;;4.40;99.90;;;;;;5072853;28;20032;-49
2023/01/04 01:04:06;;;;;;;97.40;15.80;;;4.40;99.90;;;;;;5070873;28;20071;-50
2023/01/04 01:06:33;;;;;;;40.80;13.55;;;4.40;99.90;;;;;;5056348;28;20044;-51
2023/01/04 01:08:59;;;;;;;108.20;16.27;;;4.40;99.90;;;;;;5072724;28;20051;-51
2023/01/04 01:11:25;;;;;;;143.88;17.88;;;4.30;99.90;;;;;;5072643;28;20153;-52
2023/01/04 01:13:51;;;;;;;98.22;14.68;;;4.30;99.90;;;;;;5072827;28;20183;-50
2023/01/04 01:16:19;;;;;;;122.75;16.42;;;4.20;99.90;;;;;;5072829;28;20392;-52
2023/01/04 01:18:45;;;;;;;57.53;14.45;;;4.10;99.90;;;;;;5072585;28;20028;-55
2023/01/04 01:21:17;;;;;;;64.88;13.95;;;4.10;99.90;;;;;;5069757;28;20023;-50
2023/01/04 01:23:43;;;;;;;114.75;14.40;;;4.00;99.90;;;;;;5052598;28;20117;-50
2023/01/04 01:26:13;;;;;;;89.68;13.18;;;3.90;99.90;;;;;;5052627;28;20096;-48
2023/01/04 01:28:39;;;;;;;126.03;13.27;;;3.80;99.90;;;;;;5051072;28;20032;-48
2023/01/04 01:31:07;;;;;;;55.38;12.90;;;3.70;99.90;;;;;;5052611;28;20477;-51
2023/01/04 01:33:34;;;;;;;125.93;13.57;;;3.60;99.90;;;;;;5052387;28;20029;-50
2023/01/04 01:36:01;;;;;;;108.60;12.07;;;3.50;99.90;;;;;;5055399;28;20024;-53
2023/01/04 01:38:27;;;;;;;83.30;13.27;;;3.40;99.90;;;;;;5072186;28;20028;-50
2023/01/04 01:40:52;;;;;;;63.22;12.18;;;3.40;99.90;;;;;;5072322;28;20024;-50
2023/01/04 01:43:21;;;;;;;163.35;14.18;;;3.30;99.90;;;;;;5072187;28;20422;-51
2023/01/04 01:45:51;;;;;;;130.35;14.02;;;3.30;99.90;;;;;;5072128;28;20421;-50
2023/01/04 01:48:26;;;;;;;247.70;15.20;;;3.20;99.90;;;;;;5072199;28;20025;-52
2023/01/04 01:51:00;;;;;;;181.65;15.52;;;3.20;99.90;;;;;;5067660;28;20036;-49
2023/01/04 01:53:28;;;;;;;202.80;15.23;;;3.00;99.90;;;;;;5052044;28;20021;-51
2023/01/04 01:55:56;;;;;;;149.05;14.65;;;2.90;99.90;;;;;;5052073;28;20021;-51
2023/01/04 01:58:36;;;;;;;186.77;12.45;;;2.80;99.90;;;;;;5051772;28;20074;-50
2023/01/04 02:01:02;;;;;;;114.65;12.68;;;2.70;99.90;;;;;;5052095;28;20346;-51
2023/01/04 02:03:35;;;;;;;190.25;14.50;;;2.60;99.90;;;;;;5051726;28;20021;-49
2023/01/04 02:06:03;;;;;;;119.38;13.15;;;2.50;99.90;;;;;;5059197;28;20400;-50
2023/01/04 02:08:29;;;;;;;72.47;10.57;;;2.50;99.90;;;;;;5071669;28;20499;-50
2023/01/04 02:10:55;;;;;;;170.43;13.23;;;2.40;99.90;;;;;;5065962;28;20408;-49
2023/01/04 02:14:25;;;;;;;50.05;9.68;;;2.40;99.90;;;;;;5051688;28;20017;-50
2023/01/04 02:16:42;;;;;;;113.70;11.77;;;2.30;99.90;;;;;;5051720;28;20059;-51
2023/01/04 02:19:16;;;;;;;94.82;11.13;;;2.30;99.90;;;;;;5050329;28;20052;-51
2023/01/04 02:22:14;;;;;;;69.07;9.90;;;2.20;99.90;;;;;;5051649;28;20052;-48
2023/01/04 02:24:58;;;;;;;30.63;9.60;;;2.10;99.90;;;;;;5051571;28;20033;-48
2023/01/04 02:27:56;;;;;;;19.98;10.60;;;1.90;99.90;;;;;;5069433;28;20028;-49
2023/01/04 02:30:43;;;;;;;17.30;9.55;;;1.80;99.90;;;;;;5071478;28;20029;-48
2023/01/04 02:33:12;;;;;;;10.80;8.75;;;1.80;99.90;;;;;;5071620;28;20468;-52
2023/01/04 02:35:52;;;;;;;15.70;9.35;;;1.80;99.90;;;;;;5071546;28;20033;-52
2023/01/04 02:38:20;;;;;;;15.07;9.10;;;1.80;99.90;;;;;;5071504;28;20028;-51
2023/01/04 02:41:07;;;;;;;11.18;9.02;;;1.70;99.90;;;;;;5064563;28;20025;-50
2023/01/04 02:47:14;;;;;;;13.00;9.38;;;1.60;99.90;;;;;;5052223;28;20028;-49
2023/01/04 02:52:25;;;;;;;11.70;8.25;;;1.50;99.90;;;;;;5055361;28;20090;-52
2023/01/04 02:54:54;;;;;;;12.40;9.00;;;1.50;99.90;;;;;;5056416;28;20029;-49
2023/01/04 02:57:28;;;;;;;13.18;9.68;;;1.50;99.90;;;;;;5075276;28;20028;-52
2023/01/04 03:00:32;;;;;;;11.98;9.35;;;1.50;99.90;;;;;;5075452;28;20024;-52
2023/01/04 03:06:35;;;;;;;11.68;9.05;;;1.30;99.90;;;;;;5075440;28;20091;-49
2023/01/04 03:09:07;;;;;;;14.90;9.85;;;1.30;99.90;;;;;;5074434;28;20033;-49
2023/01/04 03:14:31;;;;;;;12.15;8.95;;;1.30;99.90;;;;;;5054990;28;20702;-50
2023/01/04 03:16:57;;;;;;;12.25;10.77;;;1.30;99.90;;;;;;5054993;28;20040;-53
2023/01/04 03:19:50;;;;;;;45.13;11.07;;;1.30;99.90;;;;;;5054929;28;20025;-52
2023/01/04 03:37:06;;;;;;;48.67;19.00;;;1.30;99.90;;;;;;5072225;28;20448;-50
2023/01/04 03:48:49;;;;;;;105.30;23.13;;;1.60;99.90;;;;;;5053707;28;20027;-53
2023/01/04 03:51:25;;;;;;;67.25;18.08;;;1.70;99.90;;;;;;5056852;28;20034;-52
2023/01/04 03:54:03;;;;;;;167.52;21.05;;;1.70;99.90;;;;;;5072134;28;20543;-55
2023/01/04 03:56:30;;;;;;;109.80;15.38;;;1.80;99.90;;;;;;5071951;28;20029;-54
2023/01/04 03:58:56;;;;;;;125.38;17.10;;;1.80;99.90;;;;;;5072129;28;20059;-54
2023/01/04 04:01:24;;;;;;;19.75;13.90;;;1.90;99.90;;;;;;5073968;28;20048;-52
2023/01/04 04:09:19;;;;;;;100.30;13.68;;;2.00;99.90;;;;;;5053860;28;20052;-52
2023/01/04 04:11:44;;;;;;;373.48;21.95;;;2.00;99.90;;;;;;5054071;28;20033;-52
2023/01/04 04:14:10;;;;;;;181.93;17.95;;;2.10;99.90;;;;;;5054062;28;20111;-52
2023/01/04 04:16:36;;;;;;;258.13;17.80;;;2.10;99.90;;;;;;5053689;28;20159;-50
2023/01/04 04:19:02;;;;;;;83.38;13.85;;;2.10;99.90;;;;;;5053866;28;20032;-51
2023/01/04 04:21:27;;;;;;;304.38;18.17;;;2.20;99.90;;;;;;5053724;28;20053;-50
2023/01/04 04:23:56;;;;;;;245.85;16.70;;;2.20;99.90;;;;;;5058977;28;20737;-49
2023/01/04 04:26:23;;;;;;;214.40;17.13;;;2.20;99.90;;;;;;5073628;28;20445;-49
2023/01/04 04:28:48;;;;;;;198.05;13.68;;;2.20;99.90;;;;;;5073885;28;20380;-49
2023/01/04 04:31:14;;;;;;;259.77;18.13;;;2.20;99.90;;;;;;5073630;28;20040;-52
2023/01/04 04:33:40;;;;;;;315.95;19.88;;;2.20;99.90;;;;;;5073514;28;20029;-50
2023/01/04 04:36:07;;;;;;;240.00;20.30;;;2.30;99.90;;;;;;5073646;28;20037;-52
2023/01/04 04:38:33;;;;;;;213.43;17.20;;;2.30;99.90;;;;;;5067193;28;20043;-51
2023/01/04 04:43:43;;;;;;;258.15;16.60;;;2.30;99.90;;;;;;5053277;28;20044;-52
2023/01/04 04:46:09;;;;;;;284.58;17.70;;;2.30;99.90;;;;;;5053411;28;20029;-51
2023/01/04 04:48:34;;;;;;;60.20;11.65;;;2.30;99.90;;;;;;5053211;28;20036;-49
2023/01/04 04:51:00;;;;;;;19.02;10.52;;;2.40;99.90;;;;;;5053203;28;20138;-53
2023/01/04 04:53:25;;;;;;;25.55;11.43;;;2.40;99.90;;;;;;5059799;28;20098;-53
2023/01/04 04:55:52;;;;;;;16.52;9.70;;;2.50;99.90;;;;;;5073021;28;20387;-51
2023/01/04 04:58:18;;;;;;;17.40;9.75;;;2.60;99.90;;;;;;5073018;28;20025;-52
2023/01/04 05:00:43;;;;;;;12.65;8.88;;;2.60;99.90;;;;;;5072987;28;20426;-52
2023/01/04 05:03:09;;;;;;;205.57;14.48;;;2.60;99.90;;;;;;5073016;28;20028;-51
2023/01/04 05:05:35;;;;;;;111.05;11.57;;;2.50;99.90;;;;;;5072858;28;20028;-53
2023/01/04 05:08:00;;;;;;;44.67;9.82;;;2.50;99.90;;;;;;5072880;28;20033;-52
2023/01/04 05:10:26;;;;;;;92.50;10.88;;;2.50;99.90;;;;;;5063270;28;20047;-54
2023/01/04 05:13:01;;;;;;;15.93;9.73;;;2.40;99.90;;;;;;5052810;28;20083;-53
2023/01/04 05:15:39;;;;;;;54.60;9.90;;;2.50;99.90;;;;;;5052877;28;20036;-51
2023/01/04 05:18:06;;;;;;;26.55;9.45;;;2.60;99.90;;;;;;5052700;28;20024;-49
2023/01/04 05:20:33;;;;;;;11.27;9.23;;;2.60;99.90;;;;;;5052600;28;20071;-53
2023/01/04 05:23:00;;;;;;;15.88;9.60;;;2.60;99.90;;;;;;5052619;28;20057;-53
2023/01/04 05:25:26;;;;;;;106.78;12.95;;;2.60;99.90;;;;;;5063197;28;20028;-49
2023/01/04 05:27:51;;;;;;;143.32;15.27;;;2.60;99.90;;;;;;5071226;28;20116;-50
2023/01/04 05:33:03;;;;;;;142.82;13.70;;;2.50;99.90;;;;;;5072803;28;20505;-51
2023/01/04 05:35:28;;;;;;;144.98;14.18;;;2.60;99.90;;;;;;5072376;28;20488;-54
2023/01/04 05:37:54;;;;;;;23.98;10.15;;;2.50;99.90;;;;;;5072275;28;20033;-52
2023/01/04 05:40:20;;;;;;;30.33;10.45;;;2.60;99.90;;;;;;5059642;28;20025;-52
2023/01/04 05:42:47;;;;;;;30.52;10.00;;;2.60;99.90;;;;;;5052274;28;20059;-50
2023/01/04 05:45:14;;;;;;;29.25;10.18;;;2.60;99.90;;;;;;5052076;28;20032;-54
2023/01/04 05:47:40;;;;;;;29.30;10.15;;;2.60;99.90;;;;;;5052123;28;20024;-50
2023/01/04 05:50:06;;;;;;;43.95;8.50;;;2.60;99.90;;;;;;5052145;28;20090;-49
2023/01/04 05:52:33;;;;;;;30.80;9.70;;;2.60;99.90;;;;;;5052070;28;20521;-54
2023/01/04 05:54:59;;;;;;;29.85;8.90;;;2.70;99.90;;;;;;5063605;28;20071;-52
2023/01/04 05:57:25;;;;;;;143.15;9.23;;;2.70;99.90;;;;;;5071883;28;20056;-51
2023/01/04 05:59:50;;;;;;;32.00;8.35;;;2.60;99.90;;;;;;5071963;28;20063;-49
2023/01/04 06:02:19;;;;;;;56.22;8.73;;;2.60;99.90;;;;;;5071997;28;20028;-53
2023/01/04 06:04:46;;;;;;;24.55;8.75;;;2.50;99.90;;;;;;5071907;28;20026;-52
2023/01/04 06:07:11;;;;;;;92.13;13.45;;;2.50;99.90;;;;;;5064170;28;20111;-50
2023/01/04 06:09:37;;;;;;;140.13;12.98;;;2.40;99.90;;;;;;5069069;28;20127;-50
2023/01/04 06:12:03;;;;;;;62.75;11.73;;;2.40;99.90;;;;;;5071505;28;20462;-51
2023/01/04 06:14:29;;;;;;;112.38;12.45;;;2.40;99.90;;;;;;5071778;28;20337;-52
2023/01/04 06:16:54;;;;;;;82.57;13.55;;;2.40;99.90;;;;;;5071245;28;20108;-50
2023/01/04 06:19:20;;;;;;;22.98;9.27;;;2.40;99.90;;;;;;5071484;28;20029;-52
2023/01/04 06:21:45;;;;;;;17.73;8.48;;;2.30;99.90;;;;;;5070925;28;20032;-48
2023/01/04 06:24:11;;;;;;;166.02;16.52;;;2.30;99.90;;;;;;5063118;28;20385;-50
2023/01/04 06:26:37;;;;;;;21.15;15.57;;;2.20;99.90;;;;;;5071366;28;20093;-53
2023/01/04 06:29:03;;;;;;;31.98;7.57;;;2.20;99.90;;;;;;5070855;28;20066;-49
2023/01/04 06:31:29;;;;;;;13.25;7.13;;;2.30;99.90;;;;;;5071491;28;20039;-50
2023/01/04 06:33:55;;;;;;;28.60;7.40;;;2.20;99.90;;;;;;5071548;28;20024;-48
2023/01/04 06:36:20;;;;;;;13.38;6.60;;;2.20;99.90;;;;;;5071467;28;20020;-48
2023/01/04 06:38:47;;;;;;;37.88;7.97;;;2.20;99.90;;;;;;5070825;28;20090;-50
2023/01/04 06:41:13;;;;;;;22.80;7.93;;;2.10;99.90;;;;;;5071504;28;20123;-48
2023/01/04 06:43:39;;;;;;;95.10;9.43;;;2.00;99.90;;;;;;5071396;28;20451;-48
2023/01/04 06:46:04;;;;;;;12.05;8.77;;;2.00;99.90;;;;;;5071573;28;20033;-49
2023/01/04 06:48:30;;;;;;;15.23;7.47;;;2.00;99.90;;;;;;5071400;28;20429;-47
2023/01/04 06:50:56;;;;;;;19.73;8.52;;;2.00;99.90;;;;;;5071326;28;20017;-51
2023/01/04 06:53:21;;;;;;;92.68;11.57;;;2.00;99.90;;;;;;5063037;28;20350;-51
2023/01/04 06:55:47;;;;;;;15.63;8.50;;;2.00;99.90;;;;;;5050151;28;20120;-51
2023/01/04 06:58:12;;;;;;;37.40;9.05;;;2.00;99.90;;;;;;5051300;28;20498;-51
2023/01/04 07:00:38;;;;;;;22.08;8.35;;;2.00;99.90;;;;;;5057927;28;20017;-53
2023/01/04 07:03:04;;;;;;;17.45;8.48;;;2.00;99.90;;;;;;5071413;28;20021;-51
2023/01/04 07:05:29;;;;;;;14.93;8.55;;;2.10;99.90;;;;;;5071044;28;20028;-52
2023/01/04 07:07:59;;;;;;;23.95;8.60;;;2.00;99.90;;;;;;5070642;28;20035;-51
2023/01/04 07:10:24;;;;;;;44.22;9.95;;;2.00;99.90;;;;;;5070999;28;20044;-50
2023/01/04 07:12:50;;;;;;;53.78;10.05;;;2.00;99.90;;;;;;5071268;28;20024;-52
2023/01/04 07:15:16;;;;;;;87.40;10.77;;;1.90;99.90;;;;;;5071361;28;20471;-51
2023/01/04 07:17:41;;;;;;;25.08;8.45;;;1.90;99.90;;;;;;5070996;28;20021;-51
2023/01/04 07:20:07;;;;;;;36.35;9.00;;;1.90;99.90;;;;;;5071098;28;20025;-50
2023/01/04 07:22:33;;;;;;;33.05;9.05;;;2.00;99.90;;;;;;5065281;28;20036;-49
2023/01/04 07:24:58;;;;;;;22.80;8.52;;;2.00;99.90;;;;;;5051050;28;20017;-53
2023/01/04 07:27:24;;;;;;;46.35;8.52;;;2.00;99.90;;;;;;5050836;28;20029;-53
2023/01/04 07:29:50;;;;;;;42.13;7.85;;;2.10;99.90;;;;;;5050992;28;20388;-49
2023/01/04 07:32:15;;;;;;;7.43;6.38;;;2.10;99.90;;;;;;5051134;28;20527;-53
2023/01/04 07:34:42;;;;;;;28.05;6.63;;;2.00;99.90;;;;;;5054333;28;20036;-48
2023/01/04 07:37:08;;;;;;;159.75;12.00;;;2.10;99.90;;;;;;5054494;28;20025;-51
2023/01/04 07:39:34;;;;;;;22.10;6.30;;;2.10;99.90;;;;;;5053189;28;20247;-55
2023/01/04 07:41:59;;;;;;;118.78;8.75;;;2.10;99.90;;;;;;5071547;28;20493;-52
2023/01/04 07:44:27;;;;;;;55.63;6.47;;;2.20;99.90;;;;;;5074195;28;20051;-50
2023/01/04 07:46:53;;;;;;;93.25;6.88;;;2.20;99.90;;;;;;5071555;28;20112;-52
2023/01/04 07:49:19;;;;;;;45.17;5.90;;;2.10;99.90;;;;;;5070869;28;20017;-52
2023/01/04 07:51:46;;;;;;;9.90;5.45;;;2.20;99.90;;;;;;5072070;28;20017;-53
2023/01/04 07:54:13;;;;;;;10.32;5.15;;;2.00;99.90;;;;;;5073225;28;20021;-50
2023/01/04 07:56:38;;;;;;;23.50;5.68;;;2.10;99.90;;;;;;5074004;28;20450;-52
2023/01/04 07:59:06;;;;;;;290.67;11.65;;;2.10;99.90;;;;;;5074080;28;20033;-53
2023/01/04 08:01:34;;;;;;;87.88;7.03;;;2.10;99.90;;;;;;5074138;28;20032;-51
2023/01/04 08:04:00;;;;;;;14.93;5.97;;;2.10;99.90;;;;;;5073890;28;20027;-50
2023/01/04 08:06:26;;;;;;;104.60;7.10;;;2.20;99.90;;;;;;5074057;28;20028;-50
2023/01/04 08:08:52;;;;;;;11.05;4.70;;;2.20;99.90;;;;;;5073228;28;20460;-50
2023/01/04 08:11:21;;;;;;;58.63;6.28;;;2.30;99.90;;;;;;5074198;28;20119;-51
2023/01/04 08:13:47;;;;;;;189.40;9.55;;;2.20;99.90;;;;;;5073793;28;20112;-54
2023/01/04 08:16:40;;;;;;;156.38;9.10;;;2.30;99.90;;;;;;5074034;28;20036;-49
2023/01/04 08:19:06;;;;;;;372.50;48.97;;;2.30;99.90;;;;;;5073532;28;20036;-51
2023/01/04 08:21:34;;;;;;;139.13;19.20;;;2.30;99.90;;;;;;5073387;28;20466;-50
2023/01/04 08:24:01;;;;;;;209.02;18.75;;;2.30;99.90;;;;;;5073120;28;20031;-51
2023/01/04 08:26:27;;;;;;;131.15;8.95;;;2.40;99.90;;;;;;5073632;28;20053;-50
2023/01/04 08:28:55;;;;;;;39.20;5.82;;;2.50;99.90;;;;;;5073329;28;20103;-51
2023/01/04 08:31:23;;;;;;;20.90;7.95;;;2.50;99.90;;;;;;5073308;28;20029;-53
2023/01/04 08:33:50;;;;;;;135.20;13.90;;;2.80;99.90;;;;;;5073580;28;20024;-51
2023/01/04 08:36:19;;;;;;;216.85;16.88;;;2.70;99.90;;;;;;5073440;28;20123;-50
2023/01/04 08:38:50;;;;;;;119.18;8.68;;;2.60;99.90;;;;;;5072308;28;20069;-50
2023/01/04 08:41:17;;;;;;;73.38;16.50;;;2.60;99.90;;;;;;5073303;28;20029;-55
2023/01/04 08:43:43;;;;;;;47.50;7.35;;;2.60;99.90;;;;;;5073068;28;20161;-51
2023/01/04 08:46:09;;;;;;;117.93;9.00;;;2.50;99.90;;;;;;5052362;28;20021;-49
2023/01/04 08:48:35;;;;;;;109.70;8.50;;;2.50;99.90;;;;;;5052951;28;20048;-50
2023/01/04 08:51:05;;;;;;;125.60;8.38;;;2.50;99.90;;;;;;5053012;28;20032;-47
2023/01/04 08:53:31;;;;;;;119.78;7.72;;;2.50;99.90;;;;;;5058274;28;20463;-55
2023/01/04 08:56:00;;;;;;;117.93;7.43;;;2.50;99.90;;;;;;5062618;28;20040;-52
2023/01/04 08:58:29;;;;;;;94.82;7.43;;;2.50;99.90;;;;;;5052558;28;20104;-51
2023/01/04 09:01:09;;;;;;;72.90;7.05;;;2.50;99.90;;;;;;5052911;28;20472;-52
2023/01/04 09:03:36;;;;;;;41.25;6.07;;;2.50;99.90;;;;;;5052410;28;20143;-51
2023/01/04 09:06:07;;;;;;;61.75;5.47;;;2.70;99.90;;;;;;5052059;28;20110;-49
2023/01/04 09:08:34;;;;;;;39.08;6.20;;;2.80;99.90;;;;;;5051868;28;20395;-53
2023/01/04 09:11:11;;;;;;;41.95;7.38;;;2.80;99.90;;;;;;5063562;28;20044;-48
2023/01/04 09:13:37;;;;;;;8.05;4.53;;;2.90;99.90;;;;;;5071362;28;20025;-49
2023/01/04 09:16:09;;;;;;;21.02;5.18;;;3.20;99.90;;;;;;5071715;28;20031;-49
2023/01/04 09:18:35;;;;;;;6.40;4.82;;;3.30;99.90;;;;;;5071456;28;20035;-53
2023/01/04 09:21:08;;;;;;;4.85;4.45;;;3.40;99.90;;;;;;5071788;28;20024;-51
2023/01/04 09:23:36;;;;;;;5.43;4.90;;;3.40;99.90;;;;;;5072432;28;20023;-53
2023/01/04 09:26:10;;;;;;;5.10;4.70;;;3.40;99.90;;;;;;5071847;28;20025;-51
2023/01/04 09:28:37;;;;;;;5.20;4.80;;;3.60;99.90;;;;;;5072185;28;20024;-51
2023/01/04 09:31:11;;;;;;;3.92;3.63;;;3.70;99.90;;;;;;5071767;28;20044;-53
2023/01/04 09:33:37;;;;;;;4.75;4.35;;;3.90;99.90;;;;;;5072086;28;20044;-55
2023/01/04 09:36:04;;;;;;;3.75;3.33;;;4.80;99.90;;;;;;5072154;28;20020;-53
2023/01/04 09:38:31;;;;;;;3.25;2.90;;;6.50;99.90;;;;;;5071906;28;20105;-49
2023/01/04 09:41:12;;;;;;;2.72;2.53;;;8.40;99.90;;;;;;5071050;28;20074;-50
2023/01/04 09:44:03;;;;;;;3.05;2.22;;;10.30;99.90;;;;;;5071830;28;20040;-52
2023/01/04 09:46:58;;;;;;;2.72;2.53;;;12.00;98.10;;;;;;5070616;28;20493;-52
2023/01/04 09:49:42;;;;;;;3.03;2.17;;;13.50;92.50;;;;;;5071927;28;20028;-53
2023/01/04 09:52:13;;;;;;;;;;;14.30;90.80;;;;;;5072415;28;20065;-50
2023/01/04 09:54:48;;;;;;;2.13;2.00;;;15.30;82.60;;;;;;5071778;28;19904;-53
2023/01/04 09:57:28;;;;;;;3.15;2.22;;;16.10;78.70;;;;;;5071174;28;20024;-52
2023/01/04 10:00:00;;;;;;;2.05;1.95;;;16.60;74.00;;;;;;5071848;28;20033;-51
2023/01/04 10:03:10;;;;;;;2.90;1.98;;;17.10;73.10;;;;;;5071545;28;20411;-55
2023/01/04 10:05:35;;;;;;;1.90;1.80;;;17.60;69.90;;;;;;5056919;28;20060;-52
2023/01/04 10:08:02;;;;;;;3.00;2.10;;;17.00;69.90;;;;;;5071637;28;20082;-53
2023/01/04 10:10:50;;;;;;;2.35;1.70;;;17.70;68.60;;;;;;5071331;28;20198;-55
2023/01/04 10:13:53;;;;;;;4.00;1.80;;;18.60;65.70;;;;;;5051740;28;20037;-54
2023/01/04 10:16:25;;;;;;;1.30;1.20;;;19.00;64.20;;;;;;5047317;28;20066;-52
2023/01/04 10:19:09;;;;;;;1.63;1.52;;;18.60;64.30;;;;;;5040391;28;20037;-51
2023/01/04 10:21:50;;;;;;;12.35;8.57;;;19.10;62.70;;;;;;5040486;28;20036;-50
2023/01/04 10:24:32;;;;;;;1.77;1.67;;;18.30;62.10;;;;;;5040625;28;20025;-54
2023/01/04 10:27:12;;;;;;;1.70;1.60;;;18.30;64.10;;;;;;5041302;28;20025;-52
2023/01/04 10:29:51;;;;;;;1.60;1.48;;;16.70;66.90;;;;;;5040533;28;20028;-53
2023/01/04 10:32:42;;;;;;;2.47;2.00;;;17.10;65.90;;;;;;5040634;28;20028;-54
2023/01/04 10:35:25;;;;;;;3.28;2.50;;;16.80;69.20;;;;;;5040780;28;20528;-53
2023/01/04 10:37:57;;;;;;;2.78;2.58;;;18.30;64.70;;;;;;5040556;28;20033;-53
2023/01/04 10:40:26;;;;;;;3.35;3.05;;;19.20;62.80;;;;;;5041328;28;20484;-50
2023/01/04 10:43:18;;;;;;;2.97;2.60;;;19.60;61.00;;;;;;5039984;28;20155;-54
2023/01/04 10:46:04;;;;;;;3.05;2.63;;;20.20;60.60;;;;;;5039614;28;20068;-51
2023/01/04 10:48:54;;;;;;;2.03;1.90;;;21.30;57.20;;;;;;5040459;28;20431;-54
2023/01/04 10:51:33;;;;;;;2.03;1.92;;;19.80;58.80;;;;;;5040213;28;20364;-51
2023/01/04 10:54:40;;;;;;;1.98;1.80;;;20.40;59.70;;;;;;5041088;28;20107;-53
2023/01/04 10:57:17;;;;;;;2.40;2.20;;;19.80;58.50;;;;;;5040095;28;20037;-54
2023/01/04 10:59:50;;;;;;;1.40;1.30;;;19.50;60.70;;;;;;5044354;28;20111;-52
2023/01/04 11:02:35;;;;;;;1.60;1.50;;;21.50;57.60;;;;;;5050920;28;20043;-50
2023/01/04 11:05:12;;;;;;;2.40;1.65;;;20.50;58.70;;;;;;5050462;28;20021;-53
2023/01/04 11:08:04;;;;;;;2.28;1.90;;;19.60;59.10;;;;;;5050748;28;20032;-54
2023/01/04 11:10:43;;;;;;;2.50;1.90;;;21.10;58.70;;;;;;5062242;28;20036;-52
2023/01/04 11:13:10;;;;;;;2.75;2.28;;;21.90;56.80;;;;;;5060837;28;20106;-50
2023/01/04 11:15:35;;;;;;;1.60;1.50;;;21.30;56.80;;;;;;5043398;28;20025;-52
2023/01/04 11:18:04;;;;;;;2.05;1.95;;;20.60;57.50;;;;;;5044480;28;20025;-52
2023/01/04 11:20:30;;;;;;;2.15;1.83;;;20.60;57.10;;;;;;5044563;28;20036;-55
2023/01/04 11:23:15;;;;;;;2.30;2.10;;;20.00;58.30;;;;;;5043546;28;20074;-52
2023/01/04 11:25:46;;;;;;;2.05;1.70;;;19.10;60.70;;;;;;5044119;28;20025;-48
2023/01/04 11:28:20;;;;;;;2.15;1.95;;;20.40;58.50;;;;;;5044359;28;20061;-53
2023/01/04 11:31:04;;;;;;;3.47;2.58;;;20.80;58.00;;;;;;5043940;28;20029;-52
2023/01/04 11:33:31;;;;;;;2.40;2.20;;;21.20;57.40;;;;;;5042406;28;20040;-53
2023/01/04 11:35:58;;;;;;;5.50;2.60;;;21.00;57.00;;;;;;5044106;28;20082;-53
2023/01/04 11:38:26;;;;;;;2.15;1.95;;;21.60;57.20;;;;;;5043085;28;20037;-51
2023/01/04 11:41:04;;;;;;;3.58;2.60;;;22.50;54.50;;;;;;5044321;28;20035;-50
2023/01/04 11:43:32;;;;;;;2.08;1.88;;;21.30;55.60;;;;;;5043666;28;20044;-57
2023/01/04 11:45:59;;;;;;;2.15;1.98;;;20.60;56.70;;;;;;5044588;28;20029;-54
2023/01/04 11:48:36;;;;;;;23.20;11.35;;;21.50;57.00;;;;;;5043096;28;20037;-55
2023/01/04 11:51:03;;;;;;;2.53;2.30;;;19.70;58.60;;;;;;5042825;28;20060;-56
2023/01/04 11:53:36;;;;;;;4.32;3.10;;;19.90;59.10;;;;;;5043498;28;20039;-55
2023/01/04 11:56:10;;;;;;;2.72;2.47;;;20.50;58.60;;;;;;5043304;28;20062;-52
2023/01/04 11:58:36;;;;;;;4.22;2.72;;;18.70;61.30;;;;;;5050810;28;20036;-52
2023/01/04 12:01:02;;;;;;;2.88;2.53;;;17.70;63.60;;;;;;5053643;28;20115;-53
2023/01/04 12:03:39;;;;;;;4.70;2.83;;;17.10;65.90;;;;;;5053711;28;20104;-49
2023/01/04 12:06:40;;;;;;;3.05;2.85;;;16.40;68.30;;;;;;5066116;28;20468;-51
2023/01/04 12:09:13;;;;;;;3.90;2.95;;;16.60;67.20;;;;;;5072641;28;20098;-52
2023/01/04 12:11:42;;;;;;;4.80;4.10;;;15.90;69.60;;;;;;5073894;28;20043;-49
2023/01/04 12:14:27;;;;;;;3.70;3.40;;;15.40;71.90;;;;;;5074037;28;20036;-51
2023/01/04 12:17:22;;;;;;;4.05;3.60;;;14.90;73.30;;;;;;5072441;28;20059;-52
2023/01/04 12:19:50;;;;;;;2.85;2.58;;;14.70;76.00;;;;;;5072539;28;20028;-50
2023/01/04 12:22:21;;;;;;;3.35;2.72;;;14.90;75.90;;;;;;5073125;28;20737;-52
2023/01/04 12:24:48;;;;;;;2.53;2.33;;;14.60;76.00;;;;;;5072204;28;20063;-54
2023/01/04 12:27:14;;;;;;;3.00;2.70;;;14.60;76.90;;;;;;5071699;28;20040;-53
2023/01/04 12:29:41;;;;;;;2.90;2.70;;;14.00;79.30;;;;;;5073386;28;20430;-49
2023/01/04 12:32:10;;;;;;;3.72;3.33;;;13.70;81.30;;;;;;5073427;28;20086;-51
2023/01/04 12:34:38;;;;;;;3.78;3.33;;;13.10;83.60;;;;;;5073230;28;20439;-54
2023/01/04 12:37:05;;;;;;;3.33;3.03;;;13.20;86.30;;;;;;5073299;28;20036;-52
2023/01/04 12:39:41;;;;;;;3.58;3.10;;;12.70;90.40;;;;;;5073080;28;20056;-50
2023/01/04 12:42:10;;;;;;;3.88;3.53;;;12.50;92.70;;;;;;5072528;28;20075;-52
2023/01/04 12:44:35;;;;;;;3.97;3.67;;;12.10;94.60;;;;;;5073301;28;20053;-52
2023/01/04 12:49:56;;;;;;;4.10;3.80;;;11.60;99.90;;;;;;5075032;28;20085;-51
2023/01/04 12:52:22;;;;;;;4.25;3.83;;;11.80;99.90;;;;;;5081053;28;20021;-50
2023/01/04 12:54:48;;;;;;;7.00;5.38;;;11.70;99.90;;;;;;5072837;28;20713;-53
2023/01/04 12:57:17;;;;;;;4.35;3.92;;;11.40;99.90;;;;;;5058272;28;20106;-50
2023/01/04 12:59:53;;;;;;;21.88;14.45;;;11.30;99.90;;;;;;5072736;28;20089;-49
2023/01/04 13:02:50;;;;;;;4.85;4.40;;;11.10;99.90;;;;;;5072983;28;20012;-52
2023/01/04 13:05:16;;;;;;;16.73;11.43;;;11.10;99.90;;;;;;5071691;28;20036;-53
2023/01/04 13:07:55;;;;;;;24.10;16.05;;;11.00;99.90;;;;;;5072807;28;20033;-51
2023/01/04 13:10:39;;;;;;;18.08;13.20;;;10.80;99.90;;;;;;5071892;28;20054;-51
2023/01/04 13:13:26;;;;;;;16.58;8.57;;;10.70;99.90;;;;;;5071148;28;20020;-52
2023/01/04 13:16:21;;;;;;;22.35;12.50;;;10.50;99.90;;;;;;5072309;28;20479;-51
2023/01/04 13:18:53;;;;;;;8.10;6.28;;;10.50;99.90;;;;;;5072505;28;20029;-50
2023/01/04 13:21:31;;;;;;;8.50;5.40;;;10.50;99.90;;;;;;5072582;28;20024;-50
2023/01/04 13:24:00;;;;;;;5.75;4.70;;;10.40;99.90;;;;;;5072542;28;20044;-53
2023/01/04 13:26:41;;;;;;;5.38;4.47;;;10.30;99.90;;;;;;5071017;28;20032;-50
2023/01/04 13:29:18;;;;;;;5.13;4.07;;;10.10;99.90;;;;;;5072022;28;20036;-54
2023/01/04 13:31:46;;;;;;;4.57;4.18;;;9.90;99.90;;;;;;5071428;28;20050;-50
2023/01/04 13:34:20;;;;;;;7.63;6.13;;;9.80;99.90;;;;;;5072436;28;20020;-52
2023/01/04 13:37:11;;;;;;;5.15;4.60;;;9.80;99.90;;;;;;5072186;28;20035;-51
2023/01/04 13:39:40;;;;;;;10.90;6.47;;;9.70;99.90;;;;;;5072151;28;20028;-51
2023/01/04 13:42:12;;;;;;;7.15;5.75;;;9.60;99.90;;;;;;5072253;28;20386;-55
2023/01/04 13:44:53;;;;;;;6.10;5.53;;;9.60;99.90;;;;;;5070748;28;20017;-55
2023/01/04 13:47:19;;;;;;;8.80;7.70;;;9.60;99.90;;;;;;5055251;28;20120;-53
2023/01/04 13:49:45;;;;;;;9.90;8.93;;;9.60;99.90;;;;;;5062190;28;20108;-56